Weather at Porto Cesareo [CLOSED]

Public forecast

Using degrees Celsius for public forecast. Weather courtesy of forecast.io.

Closest aviation weather report (METAR) to Porto Cesareo

Closest report is Lecce Galatina Air Base, 14.1 nm (26.0 km) ESE. Retrieved 2021/10/16 02:55 UTC (41 minutes ago):

LIBN 160255Z 26009KT 9999 BKN040 13/11 Q1009 RMK OVC BKN070 VIS MIN 9999 WIND THR14 26008KT WIND THR32 26008KT BLU

Closest aviation forecast (TAF) to Porto Cesareo

Forecast is more than 12 hours old.

Closest forecast is Lecce Galatina Air Base, 14.1 nm (26.0 km) ESE. Retrieved 2021/06/28 12:51 UTC (4 months ago):

TAF TAF LIBN 281100Z 2812/2824 VRB03KT CAVOK